ESMK/KID METAR and TAF weather

Enter ICAO airport designator
Station Type Date Time Source
ESMK METAR 2021/03/03 20:20 UTC NOAA

ESMK 032020Z AUTO 29007KT 6000 BR OVC004/// 02/01 Q1017


Station Type Date Time Source
ESMK Decoded METAR 2021/03/03 20:20 UTC NOAA

Kristianstad / Everod, Sweden (ESMK) 55-55N 014-05E
Mar 03, 2021 - 03:20 PM EST / 2021.03.03 2020 UTC
Wind: from the WNW (290 degrees) at 8 MPH (7 KT):0
Visibility: 3 mile(s):0
Sky conditions: overcast
Weather: mist
Temperature: 35 F (2 C)
Windchill: 28 F (-2 C):1
Dew Point: 33 F (1 C)
Relative Humidity: 93%
Pressure (altimeter): 30.03 in. Hg (1017 hPa)
ob: ESMK 032020Z AUTO 29007KT 6000 BR OVC004/// 02/01 Q1017
cycle: 20

Station Type Date Time Source
ESMK TAF 2020/07/19 09:57 UTC NOAA

TAF TAF ESMK 190930Z 1909/1921 13008KT CAVOK PROB40 1910/1919 SCT030TCU

Example: see airport list